Terminal Aerodrome Forecast
Issued by NWS Goodland, KS

Home | Current Version | Previous Version | Text Only | Print | Product List | Glossary On
Versions: 1 2 3 4 5 6 7 8 9 10 11 12 13 14 15 16 17 18
000
FTUS43 KGLD 311149
TAFGLD
TAF
KGLD 311149Z 3112/0112 27004KT P6SM FEW025 SCT120
     FM311400 02010KT P6SM SCT200
     FM010200 06007KT P6SM BKN090
     FM010800 33004KT P6SM SCT150=

USA.gov is the U.S. government's official web portal to all federal, state and local government web resources and services.